Time;durP1;ratioP1;P1;durP2;ratioP2;P2;SDS_P1;SDS_P2;PMS_P1;PMS_P2;Temp;Humidity;BMP_temperature;BMP_pressure;BME280_temperature;BME280_humidity;BME280_pressure;Samples;Min_cycle;Max_cycle;Signal;HPM_P1;HPM_P2
2022/01/24 00:02:22;;;;;;;;;;;23.50;99.90;;;;;;5068341;28;19908;-72
2022/01/24 00:04:50;;;;;;;;;;;23.40;99.90;;;;;;5067800;28;20295;-72
2022/01/24 00:07:20;;;;;;;;;;;23.40;99.90;;;;;;5067923;28;20367;-72
2022/01/24 00:09:52;;;;;;;;;;;23.40;99.90;;;;;;5068201;28;20007;-72
2022/01/24 00:12:26;;;;;;;;;;;23.40;99.90;;;;;;5068243;28;20363;-72
2022/01/24 00:17:38;;;;;;;;;;;23.50;99.90;;;;;;5054970;28;19909;-72
2022/01/24 00:28:20;;;;;;;;;;;23.90;99.90;;;;;;5054957;28;20000;-72
2022/01/24 00:30:47;;;;;;;;;;;24.00;99.90;;;;;;5054864;28;19909;-71
2022/01/24 00:33:15;;;;;;;;;;;24.10;99.90;;;;;;5054399;28;19909;-72
2022/01/24 00:35:42;;;;;;;;;;;24.30;99.90;;;;;;5053935;28;19909;-71
2022/01/24 00:38:09;;;;;;;;;;;24.30;99.90;;;;;;5054167;28;20321;-72
2022/01/24 00:40:39;;;;;;;;;;;24.40;99.90;;;;;;5054567;28;20051;-72
2022/01/24 00:43:18;;;;;;;;;;;24.40;99.90;;;;;;5054644;28;19939;-72
2022/01/24 00:45:57;;;;;;;;;;;24.20;99.90;;;;;;5054379;28;20428;-72
2022/01/24 00:48:38;;;;;;;;;;;24.20;99.90;;;;;;5054313;28;19919;-72
2022/01/24 00:56:36;;;;;;;;;;;24.50;99.90;;;;;;5042627;28;19975;-71
2022/01/24 00:59:03;;;;;;;;;;;24.50;99.90;;;;;;5054343;28;19909;-72
2022/01/24 01:01:30;;;;;;;;;;;24.50;99.90;;;;;;5054059;28;20038;-71
2022/01/24 01:03:57;;;;;;;;;;;24.40;99.90;;;;;;5053174;28;19946;-71
2022/01/24 01:06:24;;;;;;;;;;;24.40;99.90;;;;;;5053184;28;20355;-72
2022/01/24 01:20:00;;;;;;;;;;;24.30;99.90;;;;;;5073551;28;20375;-73
2022/01/24 01:22:27;;;;;;;;;;;24.30;99.90;;;;;;5073412;28;19909;-72
2022/01/24 01:24:55;;;;;;;;;;;24.50;99.90;;;;;;5073184;28;19921;-72
2022/01/24 01:27:27;;;;;;;;;;;24.50;99.90;;;;;;5072552;28;19944;-71
2022/01/24 01:30:03;;;;;;;;;;;24.50;99.90;;;;;;5073380;28;19909;-72
2022/01/24 01:38:26;;;;;;;;;;;24.90;99.90;;;;;;5072953;28;20307;-72
2022/01/24 01:54:52;;;;;;;;;;;24.90;99.90;;;;;;5072993;28;20378;-71
2022/01/24 01:57:20;;;;;;;;;;;25.00;99.90;;;;;;5073034;28;19931;-71
2022/01/24 01:59:47;;;;;;;;;;;25.10;99.90;;;;;;5072874;28;20462;-71
2022/01/24 02:02:14;;;;;;;;;;;25.20;99.90;;;;;;5072763;28;20286;-71
2022/01/24 02:04:41;;;;;;;;;;;25.30;99.90;;;;;;5072364;28;19935;-72
2022/01/24 02:07:13;;;;;;;;;;;25.40;99.90;;;;;;5072231;28;19908;-71
2022/01/24 02:09:42;;;;;;;;;;;25.20;99.90;;;;;;5072719;28;19908;-71
2022/01/24 02:12:09;;;;;;;;;;;25.10;99.90;;;;;;5072437;28;19908;-72
2022/01/24 02:14:40;;;;;;;;;;;25.10;99.90;;;;;;5072510;28;20359;-71
2022/01/24 02:17:14;;;;;;;;;;;25.20;99.90;;;;;;5072555;28;20384;-71
2022/01/24 02:20:06;;;;;;;;;;;25.20;99.90;;;;;;5072513;28;19908;-72
2022/01/24 02:22:46;;;;;;;;;;;25.10;99.90;;;;;;5072081;28;19913;-71
2022/01/24 02:25:27;;;;;;;;;;;25.10;99.90;;;;;;5072253;28;19942;-72
2022/01/24 02:28:01;;;;;;;;;;;24.90;99.90;;;;;;5072257;28;19912;-72
2022/01/24 02:32:55;;;;;;;;;;;24.90;99.90;;;;;;5072641;28;19934;-72
2022/01/24 02:35:22;;;;;;;;;;;24.90;99.90;;;;;;5071948;28;19916;-71
2022/01/24 02:37:49;;;;;;;;;;;25.00;99.90;;;;;;5071699;28;19915;-71
2022/01/24 02:40:19;;;;;;;;;;;25.10;99.90;;;;;;5072412;28;19915;-72
2022/01/24 02:48:27;;;;;;;;;;;25.60;99.90;;;;;;5072295;28;19916;-71
2022/01/24 02:53:42;;;;;;;;;;;25.50;99.90;;;;;;5072227;28;19915;-71
2022/01/24 02:56:09;;;;;;;;;;;25.50;99.90;;;;;;5071941;28;20008;-72
2022/01/24 02:58:36;;;;;;;;;;;25.50;99.90;;;;;;5071894;28;20014;-72
2022/01/24 03:01:06;;;;;;;;;;;25.50;99.90;;;;;;5072118;28;19924;-72
2022/01/24 03:03:34;;;;;;;;;;;25.30;99.90;;;;;;5071690;28;19921;-72
2022/01/24 03:06:01;;;;;;;;;;;25.20;99.90;;;;;;5071334;28;20003;-72
2022/01/24 03:08:28;;;;;;;;;;;25.00;99.90;;;;;;5071860;28;19909;-72
2022/01/24 03:10:55;;;;;;;;;;;24.90;99.90;;;;;;5072153;28;19955;-72
2022/01/24 03:15:56;;;;;;;;;;;24.60;99.90;;;;;;5071985;28;19908;-72
2022/01/24 03:18:23;;;;;;;;;;;24.70;99.90;;;;;;5071678;28;19927;-72
2022/01/24 03:20:50;;;;;;;;;;;24.50;99.90;;;;;;5071912;28;19924;-72
2022/01/24 03:23:17;;;;;;;;;;;24.50;99.90;;;;;;5071936;28;19974;-70
2022/01/24 03:25:44;;;;;;;;;;;24.50;99.90;;;;;;5071968;28;19916;-71
2022/01/24 03:28:11;;;;;;;;;;;24.50;99.90;;;;;;5071879;28;19912;-71
2022/01/24 03:30:38;;;;;;;;;;;24.50;99.90;;;;;;5071974;28;19909;-71
2022/01/24 03:33:06;;;;;;;;;;;24.40;99.90;;;;;;5072008;28;19955;-71
2022/01/24 03:35:33;;;;;;;;;;;24.40;99.90;;;;;;5071314;28;19998;-71
2022/01/24 03:38:01;;;;;;;;;;;24.50;99.90;;;;;;5071482;28;19909;-71
2022/01/24 03:40:27;;;;;;;;;;;24.80;99.90;;;;;;5071399;28;20279;-72
2022/01/24 03:42:54;;;;;;;;;;;24.80;99.90;;;;;;5071785;28;20313;-71
2022/01/24 03:45:35;;;;;;;;;;;24.80;99.90;;;;;;5071525;28;19908;-72
2022/01/24 03:48:08;;;;;;;;;;;25.00;99.90;;;;;;5071433;28;19954;-72
2022/01/24 03:50:34;;;;;;;;;;;25.20;99.90;;;;;;5073353;28;19908;-72
2022/01/24 03:53:01;;;;;;;;;;;25.30;99.90;;;;;;5075393;28;19948;-71
2022/01/24 03:55:28;;;;;;;;;;;25.20;99.90;;;;;;5075272;28;20381;-71
2022/01/24 03:57:54;;;;;;;;;;;25.30;99.90;;;;;;5074777;28;19909;-71
2022/01/24 04:00:21;;;;;;;;;;;25.20;99.90;;;;;;5075299;28;19909;-71
2022/01/24 04:02:48;;;;;;;;;;;25.00;99.90;;;;;;5074981;28;19921;-71
2022/01/24 04:05:14;;;;;;;;;;;25.10;99.90;;;;;;5074571;28;19982;-71
2022/01/24 04:07:42;;;;;;;;;;;25.30;99.90;;;;;;5075284;28;20311;-71
2022/01/24 04:10:09;;;;;;;;;;;25.30;99.90;;;;;;5075136;28;20326;-71
2022/01/24 04:12:38;;;;;;;;;;;25.30;99.90;;;;;;5075107;28;19908;-71
2022/01/24 04:15:14;;;;;;;;;;;25.40;99.90;;;;;;5074637;28;19913;-70
2022/01/24 04:17:44;;;;;;;;;;;25.20;99.90;;;;;;5075133;28;20054;-70
2022/01/24 04:22:59;;;;;;;;;;;25.10;99.90;;;;;;5074963;28;19957;-71
2022/01/24 04:25:26;;;;;;;;;;;25.10;99.90;;;;;;5074576;28;20382;-70
2022/01/24 04:27:53;;;;;;;;;;;25.20;99.90;;;;;;5074409;28;19908;-71
2022/01/24 04:30:20;;;;;;;;;;;25.20;99.90;;;;;;5074511;28;20287;-71
2022/01/24 04:32:47;;;;;;;;;;;25.10;99.90;;;;;;5074730;28;20445;-71
2022/01/24 04:35:14;;;;;;;;;;;24.90;99.90;;;;;;5074292;28;19931;-70
2022/01/24 04:37:41;;;;;;;;;;;24.80;99.90;;;;;;5074351;28;20305;-71
2022/01/24 04:40:08;;;;;;;;;;;24.80;99.90;;;;;;5075038;28;19908;-70
2022/01/24 04:42:44;;;;;;;;;;;24.80;99.90;;;;;;5074328;28;20374;-70
2022/01/24 04:51:27;;;;;;;;;;;24.90;99.90;;;;;;5074305;28;19908;-71
2022/01/24 04:56:05;;;;;;;;;;;24.90;99.90;;;;;;5073981;28;20413;-70
2022/01/24 04:58:32;;;;;;;;;;;24.80;99.90;;;;;;5073947;28;20352;-71
2022/01/24 05:00:58;;;;;;;;;;;24.70;99.90;;;;;;5074075;28;19915;-71
2022/01/24 05:03:25;;;;;;;;;;;24.30;99.90;;;;;;5073655;28;19920;-71
2022/01/24 05:05:53;;;;;;;;;;;24.20;99.90;;;;;;5073256;28;19908;-72
2022/01/24 05:08:20;;;;;;;;;;;24.30;99.90;;;;;;5073893;28;19915;-73
2022/01/24 05:11:00;;;;;;;;;;;24.30;99.90;;;;;;5074109;28;19912;-72
2022/01/24 05:24:07;;;;;;;;;;;24.10;99.90;;;;;;5073190;28;19970;-72
2022/01/24 05:26:34;;;;;;;;;;;24.00;99.90;;;;;;5073469;28;19908;-72
2022/01/24 05:29:01;;;;;;;;;;;24.00;99.90;;;;;;5073506;28;19908;-72
2022/01/24 05:31:27;;;;;;;;;;;24.10;99.90;;;;;;5073389;28;19931;-72
2022/01/24 05:33:54;;;;;;;;;;;24.10;99.90;;;;;;5073031;28;20378;-72
2022/01/24 05:36:20;;;;;;;;;;;24.30;99.90;;;;;;5073158;28;20366;-72
2022/01/24 05:38:47;;;;;;;;;;;24.30;99.90;;;;;;5073248;28;19991;-72
2022/01/24 05:41:14;;;;;;;;;;;24.30;99.90;;;;;;5073236;28;19920;-72
2022/01/24 05:43:40;;;;;;;;;;;24.20;99.90;;;;;;5072952;28;19912;-72
2022/01/24 05:46:07;;;;;;;;;;;24.10;99.90;;;;;;5073154;28;19916;-72
2022/01/24 05:48:34;;;;;;;;;;;24.20;99.90;;;;;;5073189;28;19908;-72
2022/01/24 05:51:00;;;;;;;;;;;24.10;99.90;;;;;;5071598;28;19959;-72
2022/01/24 05:53:27;;;;;;;;;;;24.00;99.90;;;;;;5071126;28;19969;-72
2022/01/24 05:55:54;;;;;;;;;;;23.70;99.90;;;;;;5071058;28;19909;-72
2022/01/24 05:58:21;;;;;;;;;;;23.80;99.90;;;;;;5071183;28;19909;-71
2022/01/24 06:00:48;;;;;;;;;;;23.70;99.90;;;;;;5070813;28;19915;-71
2022/01/24 06:03:15;;;;;;;;;;;23.50;99.90;;;;;;5070054;28;19920;-71
2022/01/24 06:05:41;;;;;;;;;;;23.50;99.90;;;;;;5070542;28;19916;-71
2022/01/24 06:08:08;;;;;;;;;;;23.50;99.90;;;;;;5070705;28;19912;-71
2022/01/24 06:10:37;;;;;;;;;;;23.60;99.90;;;;;;5066444;28;20659;-72
2022/01/24 06:13:04;;;;;;;;;;;23.60;99.90;;;;;;5069053;28;20344;-71
2022/01/24 06:15:31;;;;;;;;;;;23.50;99.90;;;;;;5064746;28;19931;-71
2022/01/24 06:17:57;;;;;;;;;;;23.50;99.90;;;;;;5050487;28;19971;-71
2022/01/24 06:20:24;;;;;;;;;;;23.60;99.90;;;;;;5050141;28;19996;-71
2022/01/24 06:22:51;;;;;;;;;;;23.50;99.90;;;;;;5049409;28;19909;-70
2022/01/24 06:25:23;;;;;;;;;;;23.50;99.90;;;;;;5063858;28;20346;-70
2022/01/24 06:27:50;;;;;;;;;;;23.40;99.90;;;;;;5069487;28;19993;-70
2022/01/24 06:30:17;;;;;;;;;;;23.30;99.90;;;;;;5070257;28;19908;-71
2022/01/24 06:32:44;;;;;;;;;;;23.30;99.90;;;;;;5069884;28;19947;-71
2022/01/24 06:35:11;;;;;;;;;;;23.30;99.90;;;;;;5070169;28;19919;-71
2022/01/24 06:37:38;;;;;;;;;;;23.30;99.90;;;;;;5069874;28;20055;-71
2022/01/24 06:40:05;;;;;;;;;;;23.30;99.90;;;;;;5069959;28;19931;-71
2022/01/24 06:42:32;;;;;;;;;;;23.10;99.90;;;;;;5069125;28;19999;-70
2022/01/24 06:44:59;;;;;;;;;;;23.10;99.90;;;;;;5070253;28;20344;-72
2022/01/24 06:47:25;;;;;;;;;;;23.10;99.90;;;;;;5089354;28;19908;-71
2022/01/24 06:49:52;;;;;;;;;;;23.10;99.90;;;;;;5087941;28;19916;-71
2022/01/24 06:52:20;;;;;;;;;;;23.10;99.90;;;;;;5088144;28;19961;-71
2022/01/24 06:54:47;;;;;;;;;;;23.10;99.90;;;;;;5086749;28;19963;-72
2022/01/24 06:57:14;;;;;;;;;;;23.10;99.90;;;;;;5088296;28;19908;-71
2022/01/24 06:59:42;;;;;;;;;;;23.10;99.90;;;;;;5076814;28;19954;-71
2022/01/24 07:02:09;;;;;;;;;;;23.00;99.90;;;;;;5048146;28;19915;-71
2022/01/24 07:04:39;;;;;;;;;;;22.80;99.90;;;;;;5049675;28;19951;-71
2022/01/24 07:07:09;;;;;;;;;;;22.70;99.90;;;;;;5049786;28;20253;-70
2022/01/24 07:09:36;;;;;;;;;;;22.80;99.90;;;;;;5049987;28;19917;-71
2022/01/24 07:12:07;;;;;;;;;;;22.70;99.90;;;;;;5048834;28;19913;-71
2022/01/24 07:14:33;;;;;;;;;;;22.70;99.90;;;;;;5050046;28;20340;-71
2022/01/24 07:19:30;;;;;;;;;;;22.60;99.90;;;;;;5050034;28;20302;-71
2022/01/24 07:21:58;;;;;;;;;;;22.60;99.90;;;;;;5048769;28;19909;-71
2022/01/24 07:24:25;;;;;;;;;;;22.50;99.90;;;;;;5049850;28;20443;-71
2022/01/24 07:26:52;;;;;;;;;;;22.50;99.90;;;;;;5053240;28;19912;-71
2022/01/24 07:29:19;;;;;;;;;;;22.60;99.90;;;;;;5053677;28;19912;-71
2022/01/24 07:31:46;;;;;;;;;;;22.60;99.90;;;;;;5052774;28;19962;-71
2022/01/24 07:34:13;;;;;;;;;;;22.50;99.90;;;;;;5053255;28;19960;-71
2022/01/24 07:36:40;;;;;;;;;;;22.50;99.90;;;;;;5053895;28;19935;-71
2022/01/24 07:39:07;;;;;;;;;;;22.40;99.90;;;;;;5053867;28;20004;-71
2022/01/24 07:41:41;;;;;;;;;;;22.30;99.90;;;;;;5053158;28;19912;-71
2022/01/24 07:44:08;;;;;;;;;;;22.30;99.90;;;;;;5053239;28;19917;-71
2022/01/24 07:46:35;;;;;;;;;;;22.30;99.90;;;;;;5053155;28;19913;-71
2022/01/24 07:49:03;;;;;;;;;;;22.30;99.90;;;;;;5053355;28;19948;-71
2022/01/24 07:51:29;;;;;;;;;;;22.30;99.90;;;;;;5053041;28;19936;-71
2022/01/24 07:53:56;;;;;;;;;;;22.30;99.90;;;;;;5052936;28;19921;-71
2022/01/24 07:56:23;;;;;;;;;;;22.30;99.90;;;;;;5053358;28;19908;-71
2022/01/24 07:58:49;;;;;;;;;;;22.30;99.90;;;;;;5053306;28;19955;-72
2022/01/24 08:01:16;;;;;;;;;;;22.20;99.90;;;;;;5052656;28;19917;-72
2022/01/24 08:03:43;;;;;;;;;;;22.20;99.90;;;;;;5052521;28;19935;-71
2022/01/24 08:06:10;;;;;;;;;;;22.20;99.90;;;;;;5054166;28;19955;-71
2022/01/24 08:08:36;;;;;;;;;;;22.30;99.90;;;;;;5055191;28;19917;-70
2022/01/24 08:11:03;;;;;;;;;;;22.20;99.90;;;;;;5054875;28;19909;-71
2022/01/24 08:13:30;;;;;;;;;;;22.20;99.90;;;;;;5054520;28;19955;-71
2022/01/24 08:15:57;;;;;;;;;;;22.20;99.90;;;;;;5054722;28;20306;-72
2022/01/24 08:18:23;;;;;;;;;;;22.20;99.90;;;;;;5054891;28;19912;-71
2022/01/24 08:20:50;;;;;;;;;;;22.20;99.90;;;;;;5054815;28;19909;-72
2022/01/24 08:23:19;;;;;;;;;;;22.20;99.90;;;;;;5054633;28;19920;-71
2022/01/24 08:25:46;;;;;;;;;;;22.20;99.90;;;;;;5054767;28;19925;-71
2022/01/24 08:28:13;;;;;;;;;;;22.20;99.90;;;;;;5054298;28;20271;-71
2022/01/24 08:30:40;;;;;;;;;;;22.20;99.90;;;;;;5055471;28;19913;-72
2022/01/24 08:33:07;;;;;;;;;;;22.20;99.90;;;;;;5054411;28;20417;-71
2022/01/24 08:35:33;;;;;;;;;;;22.20;99.90;;;;;;5054156;28;19995;-71
2022/01/24 08:38:00;;;;;;;;;;;22.20;99.90;;;;;;5054269;28;19909;-72
2022/01/24 08:40:27;;;;;;;;;;;22.10;99.90;;;;;;5053998;28;20316;-72
2022/01/24 08:43:02;;;;;;;;;;;22.00;99.90;;;;;;5053822;28;19909;-73
2022/01/24 08:48:16;;;;;;;;;;;22.10;99.90;;;;;;5054629;28;19916;-73
2022/01/24 08:50:43;;;;;;;;;;;22.10;99.90;;;;;;5054279;28;19972;-72
2022/01/24 08:53:10;;;;;;;;;;;22.10;99.90;;;;;;5053977;28;19909;-72
2022/01/24 08:55:38;;;;;;;;;;;22.10;99.90;;;;;;5053635;28;19935;-73
2022/01/24 08:58:06;;;;;;;;;;;22.10;99.90;;;;;;5053927;28;19916;-72
2022/01/24 09:00:33;;;;;;;;;;;22.10;99.90;;;;;;5054248;28;19985;-72
2022/01/24 09:02:59;;;;;;;;;;;22.10;99.90;;;;;;5053550;28;20015;-72
2022/01/24 09:05:27;;;;;;;;;;;22.10;99.90;;;;;;5054089;28;19917;-73
2022/01/24 09:07:54;;;;;;;;;;;22.10;99.90;;;;;;5054032;28;19913;-72
2022/01/24 09:10:24;;;;;;;;;;;22.10;99.90;;;;;;5053605;28;20371;-71
2022/01/24 09:12:51;;;;;;;;;;;22.10;99.90;;;;;;5054127;28;20323;-71
2022/01/24 09:15:18;;;;;;;;;;;22.00;99.90;;;;;;5054217;28;20304;-71
2022/01/24 09:17:45;;;;;;;;;;;22.00;99.90;;;;;;5054100;28;20332;-71
2022/01/24 09:20:12;;;;;;;;;;;22.10;99.90;;;;;;5053908;28;20271;-71
2022/01/24 09:22:39;;;;;;;;;;;22.00;99.90;;;;;;5053800;28;19908;-72
2022/01/24 09:25:09;;;;;;;;;;;22.00;99.90;;;;;;5053343;28;19924;-72
2022/01/24 09:27:37;;;;;;;;;;;21.90;99.90;;;;;;5053969;28;19912;-72
2022/01/24 09:30:05;;;;;;;;;;;21.90;99.90;;;;;;5053488;28;19908;-72
2022/01/24 09:32:31;;;;;;;;;;;21.90;99.90;;;;;;5053813;28;19916;-72
2022/01/24 09:34:58;;;;;;;;;;;21.90;99.90;;;;;;5053908;28;19963;-71
2022/01/24 09:37:25;;;;;;;;;;;21.90;99.90;;;;;;5052905;28;20541;-72
2022/01/24 09:39:51;;;;;;;;;;;21.90;99.90;;;;;;5052787;28;19967;-72
2022/01/24 09:42:18;;;;;;;;;;;21.80;99.90;;;;;;5053315;28;20367;-71
2022/01/24 09:44:45;;;;;;;;;;;21.80;99.90;;;;;;5053290;28;20325;-71
2022/01/24 09:47:14;;;;;;;;;;;21.80;99.90;;;;;;5052976;28;19916;-71
2022/01/24 09:49:41;;;;;;;;;;;21.80;99.90;;;;;;5053175;28;19912;-71
2022/01/24 09:52:08;;;;;;;;;;;21.70;99.90;;;;;;5053147;28;20322;-71
2022/01/24 09:54:35;;;;;;;;;;;21.70;99.90;;;;;;5053480;28;20009;-71
2022/01/24 09:57:01;;;;;;;;;;;21.70;99.90;;;;;;5053582;28;20364;-70
2022/01/24 09:59:29;;;;;;;;;;;21.70;99.90;;;;;;5053412;28;20371;-71
2022/01/24 10:01:56;;;;;;;;;;;21.70;99.90;;;;;;5053107;28;19909;-72
2022/01/24 10:04:25;;;;;;;;;;;21.70;99.90;;;;;;5052877;28;19943;-71
2022/01/24 10:06:58;;;;;;;;;;;21.70;99.90;;;;;;5053824;28;20276;-71
2022/01/24 10:09:28;;;;;;;;;;;21.70;99.90;;;;;;5053030;28;19908;-71
2022/01/24 10:12:08;;;;;;;;;;;21.70;99.90;;;;;;5052934;28;19930;-70
2022/01/24 10:17:24;;;;;;;;;;;21.80;99.90;;;;;;5053347;28;20512;-72
2022/01/24 10:19:50;;;;;;;;;;;21.70;99.90;;;;;;5052107;28;19909;-72
2022/01/24 10:22:20;;;;;;;;;;;21.80;99.90;;;;;;5052964;28;19955;-72
2022/01/24 10:24:53;;;;;;;;;;;21.90;99.90;;;;;;5052848;28;19920;-72
2022/01/24 10:27:24;;;;;;;;;;;21.90;99.90;;;;;;5052871;28;19909;-73
2022/01/24 10:30:04;;;;;;;;;;;21.80;99.90;;;;;;5052549;28;19932;-72
2022/01/24 10:32:30;;;;;;;;;;;21.90;99.90;;;;;;5052859;28;19959;-72
2022/01/24 10:35:17;;;;;;;;;;;21.90;99.90;;;;;;5052073;28;20428;-71
2022/01/24 10:37:45;;;;;;;;;;;21.90;99.90;;;;;;5052418;28;19939;-71
2022/01/24 10:40:20;;;;;;;;;;;21.90;99.90;;;;;;5052782;28;20330;-72
2022/01/24 10:42:53;;;;;;;;;;;21.80;99.90;;;;;;5052633;28;19983;-71
2022/01/24 10:45:22;;;;;;;;;;;21.90;99.90;;;;;;5052662;28;19948;-71
2022/01/24 10:47:52;;;;;;;;;;;21.90;99.90;;;;;;5052216;28;19909;-71
2022/01/24 10:50:29;;;;;;;;;;;21.90;99.90;;;;;;5051942;28;19909;-72
2022/01/24 10:52:57;;;;;;;;;;;21.90;99.90;;;;;;5052549;28;19909;-71
2022/01/24 10:55:26;;;;;;;;;;;21.90;99.90;;;;;;5052482;28;19916;-72
2022/01/24 10:58:06;;;;;;;;;;;21.90;99.90;;;;;;5052343;28;19916;-72
2022/01/24 11:00:34;;;;;;;;;;;21.90;99.90;;;;;;5052158;28;19909;-71
2022/01/24 11:03:02;;;;;;;;;;;21.90;99.90;;;;;;5051726;28;19939;-72
2022/01/24 11:05:39;;;;;;;;;;;21.90;99.90;;;;;;5051778;28;19944;-72
2022/01/24 11:08:11;;;;;;;;;;;21.90;99.90;;;;;;5052165;28;19991;-72
2022/01/24 11:10:40;;;;;;;;;;;21.90;99.90;;;;;;5052498;28;20274;-72
2022/01/24 11:13:07;;;;;;;;;;;21.90;99.90;;;;;;5052188;28;19913;-72
2022/01/24 11:15:34;;;;;;;;;;;21.90;99.90;;;;;;5052332;28;20548;-73
2022/01/24 11:18:02;;;;;;;;;;;21.90;99.90;;;;;;5051985;28;20397;-73
2022/01/24 11:20:32;;;;;;;;;;;21.90;99.90;;;;;;5051724;28;19908;-73
2022/01/24 11:23:01;;;;;;;;;;;21.90;99.90;;;;;;5052084;28;20414;-73
2022/01/24 11:25:47;;;;;;;;;;;21.80;99.90;;;;;;5052178;28;19912;-74
2022/01/24 11:28:13;;;;;;;;;;;21.80;99.90;;;;;;5052084;28;19908;-73
2022/01/24 11:30:43;;;;;;;;;;;21.80;99.90;;;;;;5052155;28;19909;-73
2022/01/24 11:33:13;;;;;;;;;;;21.90;99.90;;;;;;5051992;28;19916;-73
2022/01/24 11:35:45;;;;;;;;;;;21.90;99.90;;;;;;5051600;28;19997;-73
2022/01/24 11:38:27;;;;;;;;;;;21.90;99.90;;;;;;5052054;28;19913;-73
2022/01/24 11:40:58;;;;;;;;;;;21.90;99.90;;;;;;5052132;28;19916;-73
2022/01/24 11:43:30;;;;;;;;;;;21.90;99.90;;;;;;5052063;28;19917;-73
2022/01/24 11:46:03;;;;;;;;;;;21.90;99.90;;;;;;5051751;28;19912;-72
2022/01/24 11:48:32;;;;;;;;;;;21.90;99.90;;;;;;5051384;28;19915;-72
2022/01/24 11:51:06;;;;;;;;;;;21.90;99.90;;;;;;5051898;28;20382;-72
2022/01/24 11:53:34;;;;;;;;;;;21.90;99.90;;;;;;5051820;28;20011;-73
2022/01/24 11:56:21;;;;;;;;;;;21.90;99.90;;;;;;5051717;28;19944;-73
2022/01/24 11:58:48;;;;;;;;;;;21.90;99.90;;;;;;5051991;28;20310;-73
2022/01/24 12:01:35;;;;;;;;;;;21.80;99.90;;;;;;5051816;28;20364;-73
2022/01/24 12:04:02;;;;;;;;;;;21.90;99.90;;;;;;5050698;28;19927;-72
2022/01/24 12:06:29;;;;;;;;;;;21.90;99.90;;;;;;5051926;28;19913;-72
2022/01/24 12:09:05;;;;;;;;;;;21.80;99.90;;;;;;5051865;28;20322;-72
2022/01/24 12:11:35;;;;;;;;;;;21.90;99.90;;;;;;5051892;28;20356;-72
2022/01/24 12:14:14;;;;;;;;;;;21.90;99.90;;;;;;5055215;28;19996;-73
2022/01/24 12:16:42;;;;;;;;;;;21.90;99.90;;;;;;5055243;28;19908;-72
2022/01/24 12:19:10;;;;;;;;;;;21.90;99.90;;;;;;5054233;28;19909;-72
2022/01/24 12:21:38;;;;;;;;;;;21.90;99.90;;;;;;5055316;28;19931;-73
2022/01/24 12:24:09;;;;;;;;;;;21.90;99.90;;;;;;5054995;28;19963;-72
2022/01/24 12:26:38;;;;;;;;;;;21.90;99.90;;;;;;5055150;28;19944;-73
2022/01/24 12:29:06;;;;;;;;;;;22.00;99.90;;;;;;5055190;28;19915;-73
2022/01/24 12:31:34;;;;;;;;;;;22.00;99.90;;;;;;5055297;28;19916;-70
2022/01/24 12:34:08;;;;;;;;;;;22.00;99.90;;;;;;5054899;28;20352;-71
2022/01/24 12:36:38;;;;;;;;;;;21.90;99.90;;;;;;5054954;28;20345;-71
2022/01/24 12:39:14;;;;;;;;;;;22.00;99.90;;;;;;5055030;28;20363;-72
2022/01/24 12:41:46;;;;;;;;;;;21.90;99.90;;;;;;5054798;28;19912;-71
2022/01/24 12:46:18;;;;;;;;;;;21.90;99.90;;;;;;5054794;28;20390;-72
2022/01/24 12:47:05;;;;;;;;;;;21.90;99.90;;;;;;5054599;28;19909;-71
2022/01/24 12:49:32;;;;;;;;;;;21.90;99.90;;;;;;5054983;28;19913;-72
2022/01/24 12:52:00;;;;;;;;;;;22.00;99.90;;;;;;5054396;28;19909;-72
2022/01/24 12:54:33;;;;;;;;;;;22.00;99.90;;;;;;5054593;28;19913;-72
2022/01/24 12:57:01;;;;;;;;;;;22.00;99.90;;;;;;5054669;28;19932;-72
2022/01/24 12:59:28;;;;;;;;;;;22.00;99.90;;;;;;5054493;28;19909;-72
2022/01/24 13:01:57;;;;;;;;;;;22.00;99.90;;;;;;5054222;28;19908;-71
2022/01/24 13:04:35;;;;;;;;;;;22.00;99.90;;;;;;5054376;28;20003;-70
2022/01/24 13:07:02;;;;;;;;;;;22.00;99.90;;;;;;5054458;28;19915;-72
2022/01/24 13:09:29;;;;;;;;;;;21.90;99.90;;;;;;5054418;28;19915;-72
2022/01/24 13:11:58;;;;;;;;;;;22.00;99.90;;;;;;5054056;28;19997;-72
2022/01/24 13:14:38;;;;;;;;;;;22.00;99.90;;;;;;5054289;28;19932;-72
2022/01/24 13:25:16;;;;;;;;;;;22.00;99.90;;;;;;5054164;28;19921;-71
2022/01/24 13:28:09;;;;;;;;;;;22.00;99.90;;;;;;5054057;28;19913;-71
2022/01/24 13:30:38;;;;;;;;;;;21.90;99.90;;;;;;5052726;28;19909;-71
2022/01/24 13:33:04;;;;;;;;;;;21.90;99.90;;;;;;5053625;28;19909;-71
2022/01/24 13:35:38;;;;;;;;;;;22.00;99.90;;;;;;5053838;28;19931;-71
2022/01/24 13:38:04;;;;;;;;;;;22.00;99.90;;;;;;5053623;28;19909;-72
2022/01/24 13:40:39;;;;;;;;;;;22.00;99.90;;;;;;5053797;28;19909;-72
2022/01/24 13:43:07;;;;;;;;;;;22.00;99.90;;;;;;5053682;28;19923;-71
2022/01/24 13:45:39;;;;;;;;;;;22.00;99.90;;;;;;5053614;28;20047;-72
2022/01/24 13:48:15;;;;;;;;;;;21.90;99.90;;;;;;5053383;28;19939;-72
2022/01/24 13:50:48;;;;;;;;;;;21.90;99.90;;;;;;5053671;28;19916;-72
2022/01/24 13:53:28;;;;;;;;;;;21.90;99.90;;;;;;5053738;28;19908;-72
2022/01/24 13:55:54;;;;;;;;;;;21.90;99.90;;;;;;5053402;28;19913;-72
2022/01/24 13:58:25;;;;;;;;;;;22.00;99.90;;;;;;5053523;28;19909;-72
2022/01/24 14:00:59;;;;;;;;;;;22.00;99.90;;;;;;5053475;28;19909;-72
2022/01/24 14:03:26;;;;;;;;;;;21.90;99.90;;;;;;5053004;28;19928;-71
2022/01/24 14:06:14;;;;;;;;;;;21.90;99.90;;;;;;5053074;28;20406;-71
2022/01/24 14:08:42;;;;;;;;;;;21.90;99.90;;;;;;5053287;28;20283;-72
2022/01/24 14:11:14;;;;;;;;;;;21.90;99.90;;;;;;5053137;28;19913;-72
2022/01/24 14:13:47;;;;;;;;;;;21.90;99.90;;;;;;5053182;28;19919;-72
2022/01/24 14:16:33;;;;;;;;;;;21.90;99.90;;;;;;5053091;28;19959;-71
2022/01/24 14:19:01;;;;;;;;;;;21.90;99.90;;;;;;5053050;28;19917;-71
2022/01/24 14:21:27;;;;;;;;;;;21.80;99.90;;;;;;5053076;28;20314;-71
2022/01/24 14:23:55;;;;;;;;;;;21.80;99.90;;;;;;5052851;28;19917;-71
2022/01/24 14:26:23;;;;;;;;;;;21.80;99.90;;;;;;5053055;28;19909;-72
2022/01/24 14:29:04;;;;;;;;;;;21.80;99.90;;;;;;5052974;28;19908;-72
2022/01/24 14:31:32;;;;;;;;;;;21.80;99.90;;;;;;5052802;28;20003;-70
2022/01/24 14:34:03;;;;;;;;;;;21.80;99.90;;;;;;5052368;28;19909;-72
2022/01/24 14:36:29;;;;;;;;;;;21.80;99.90;;;;;;5052838;28;19978;-72
2022/01/24 14:38:58;;;;;;;;;;;21.80;99.90;;;;;;5052899;28;19915;-71
2022/01/24 14:41:28;;;;;;;;;;;21.80;99.90;;;;;;5052675;28;19909;-71
2022/01/24 14:46:41;;;;;;;;;;;21.80;99.90;;;;;;5052784;28;19955;-71
2022/01/24 14:49:12;;;;;;;;;;;21.80;99.90;;;;;;5068003;28;20282;-72
2022/01/24 14:51:40;;;;;;;;;;;21.80;99.90;;;;;;5052751;28;19916;-72
2022/01/24 14:54:12;;;;;;;;;;;21.80;99.90;;;;;;5052335;28;20374;-71
2022/01/24 14:56:40;;;;;;;;;;;21.70;99.90;;;;;;5052495;28;19915;-72
2022/01/24 14:59:06;;;;;;;;;;;21.70;99.90;;;;;;5052428;28;19913;-72
2022/01/24 15:01:33;;;;;;;;;;;21.80;99.90;;;;;;5052405;28;19909;-71
2022/01/24 15:04:00;;;;;;;;;;;21.80;99.90;;;;;;5052026;28;19927;-71
2022/01/24 15:06:27;;;;;;;;;;;21.80;99.90;;;;;;5052602;28;20275;-71
2022/01/24 15:08:56;;;;;;;;;;;21.80;99.90;;;;;;5051281;28;19916;-71
2022/01/24 15:11:25;;;;;;;;;;;21.70;99.90;;;;;;5052407;28;19909;-71
2022/01/24 15:13:55;;;;;;;;;;;21.70;99.90;;;;;;5052051;28;19994;-72
2022/01/24 15:26:55;;;;;;;;;;;21.80;99.90;;;;;;5052228;28;19960;-73
2022/01/24 15:29:22;;;;;;;;;;;21.80;99.90;;;;;;5052116;28;19916;-72
2022/01/24 15:31:49;;;;;;;;;;;21.70;99.90;;;;;;5051821;28;19916;-72
2022/01/24 15:34:19;;;;;;;;;;;21.80;99.90;;;;;;5052044;28;19909;-72
2022/01/24 15:36:47;;;;;;;;;;;21.70;99.90;;;;;;5052160;28;19908;-72
2022/01/24 15:39:14;;;;;;;;;;;21.80;99.90;;;;;;5052162;28;19992;-72
2022/01/24 15:41:51;;;;;;;;;;;21.70;99.90;;;;;;5052120;28;19916;-72
2022/01/24 15:47:05;;;;;;;;;;;21.70;99.90;;;;;;5054457;28;19917;-71
2022/01/24 15:49:32;;;;;;;;;;;21.80;99.90;;;;;;5056239;28;19908;-70
2022/01/24 15:51:59;;;;;;;;;;;21.70;99.90;;;;;;5055646;28;19909;-70
2022/01/24 15:54:27;;;;;;;;;;;21.70;99.90;;;;;;5055645;28;20418;-71
2022/01/24 15:59:38;;;;;;;;;;;21.70;99.90;;;;;;5055900;28;19915;-71
2022/01/24 16:02:05;;;;;;;;;;;21.70;99.90;;;;;;5055490;28;19970;-71
2022/01/24 16:04:32;;;;;;;;;;;21.70;99.90;;;;;;5055417;28;20353;-71
2022/01/24 16:06:59;;;;;;;;;;;21.60;99.90;;;;;;5055521;28;19909;-72
2022/01/24 16:09:25;;;;;;;;;;;21.50;99.90;;;;;;5055475;28;19916;-71
2022/01/24 16:11:52;;;;;;;;;;;21.50;99.90;;;;;;5055360;28;20348;-71
2022/01/24 16:14:18;;;;;;;;;;;21.50;99.90;;;;;;5055506;28;19909;-72
2022/01/24 16:16:47;;;;;;;;;;;21.50;99.90;;;;;;5055236;28;19909;-71
2022/01/24 16:19:13;;;;;;;;;;;21.50;99.90;;;;;;5055364;28;20360;-71
2022/01/24 16:21:45;;;;;;;;;;;21.40;99.90;;;;;;5055447;28;19916;-71
2022/01/24 16:26:43;;;;;;;;;;;21.40;99.90;;;;;;5055326;28;19915;-71
2022/01/24 16:29:10;;;;;;;;;;;21.50;99.90;;;;;;5055234;28;19916;-71